Tropical Cyclones
[Index]
Season 2019-2020 Tropical Cyclone DAMIEN Track Map
Season 2019-2020 Summaries (Operational Data): [AU] [SIO] [SPAC] [SH]
<<- Previous TC | 2019-2020 Season | Next TC ->>

click for intensity scale information  Lat/long Grid: Show Hide

 Date Labels: Show Hide

Operational Tropical Cyclone Data

Name: DAMIEN
Number: 2014

02 Feb 2020 18:00 UTC to 10 Feb 2020 00:00 UTC

    date/time    lat    long     hPa   cat  kts
2020-02-02 18   16.6   129.5    1010         15          
2020-02-03 00   16.5   129.0    1010         15          
2020-02-03 06   16.4   128.5    1010         15          
2020-02-03 12   16.3   128.1    1010         15          
2020-02-03 18   16.2   127.9    1010         15          
2020-02-04 00   16.1   127.5    1010         15          
2020-02-04 06   16.1   126.7    1004         20          
2020-02-04 12   16.1   125.8    1004         25          
2020-02-04 18   16.5   124.7    1002         25          
2020-02-05 00   16.5   123.8    1004         25          
2020-02-05 06   16.5   123.1    1002         30          
2020-02-05 12   16.7   122.3    1002         30          
2020-02-05 18   16.9   121.5    1000         30          
2020-02-06 00   17.0   120.6     998    1    35          
2020-02-06 06   17.1   119.5     993    1    45          
2020-02-06 12   17.3   118.3     994    1    45          
2020-02-06 18   17.5   117.8     990    2    55          
2020-02-07 00   17.8   117.3     986    2    60          
2020-02-07 06   18.1   117.0     981    3    65          
2020-02-07 12   18.5   116.8     976    3    75          
2020-02-07 18   19.1   116.6     969    3    85          
2020-02-08 00   19.7   116.5     966    4    90          
2020-02-08 06   20.4   116.6     961    4    95          
2020-02-08 12   21.3   116.9     969    3    85          
2020-02-08 18   22.1   117.3     983    3    65          
2020-02-09 00   22.7   117.5     993    2    50          
2020-02-09 06   23.4   117.6     990    1    45          
2020-02-09 12   23.9   117.6     989    1    40          
2020-02-09 18   24.2   117.7     997    1    35          
2020-02-10 00   24.6   117.6    1000         30          
Winds are 10-min average.

Tropical cyclone tracks developed by Michael Bath using operational warnings and advisories and Google Maps.


Document: tropical_cyclone_damien.htm
Updated: 17 June 2020
[Australian Severe Weather index] [Copyright Notice] [Email Contacts] [Search This Site] [Privacy Policy]


Main Index Home Page Stock Weather Photos Extreme Storms Discussion Storm News and Storm Chasing Reports Tropical Cyclones / Hurricanes / Typhoons Weather Data and Links Wild Fires / Bushfires Weather Observation Techniques Weather Picture Catalogue Tornado Pictures and Reports Stock Video Footage and DVDs for sale